sensor_id;sensor_type;location;lat;lon;timestamp;temperature;humidity
16929;DHT22;8581;47.334;11.190;2022-12-10T00:01:17;0.40;99.90
16929;DHT22;8581;47.334;11.190;2022-12-10T00:03:48;0.60;99.90
16929;DHT22;8581;47.334;11.190;2022-12-10T00:06:20;0.60;99.90
16929;DHT22;8581;47.334;11.190;2022-12-10T00:08:51;0.30;99.90
16929;DHT22;8581;47.334;11.190;2022-12-10T00:11:23;0.30;99.90
16929;DHT22;8581;47.334;11.190;2022-12-10T00:13:54;0.30;99.90
16929;DHT22;8581;47.334;11.190;2022-12-10T00:16:27;0.30;99.90
16929;DHT22;8581;47.334;11.190;2022-12-10T00:18:57;0.30;99.90
16929;DHT22;8581;47.334;11.190;2022-12-10T00:21:31;0.40;99.90
16929;DHT22;8581;47.334;11.190;2022-12-10T00:24:01;0.30;99.90
16929;DHT22;8581;47.334;11.190;2022-12-10T00:26:34;0.40;99.90
16929;DHT22;8581;47.334;11.190;2022-12-10T00:29:05;0.40;99.90
16929;DHT22;8581;47.334;11.190;2022-12-10T00:31:36;0.30;99.90
16929;DHT22;8581;47.334;11.190;2022-12-10T00:34:08;0.20;99.90
16929;DHT22;8581;47.334;11.190;2022-12-10T00:36:42;0.10;99.90
16929;DHT22;8581;47.334;11.190;2022-12-10T00:39:14;0.10;99.90
16929;DHT22;8581;47.334;11.190;2022-12-10T00:41:44;0.00;99.90
16929;DHT22;8581;47.334;11.190;2022-12-10T00:44:16;0.10;99.90
16929;DHT22;8581;47.334;11.190;2022-12-10T00:46:47;-0.10;99.90
16929;DHT22;8581;47.334;11.190;2022-12-10T00:49:19;-0.20;99.90
16929;DHT22;8581;47.334;11.190;2022-12-10T00:51:51;-0.10;99.90
16929;DHT22;8581;47.334;11.190;2022-12-10T00:54:22;-0.20;99.90
16929;DHT22;8581;47.334;11.190;2022-12-10T00:56:54;-0.10;99.90
16929;DHT22;8581;47.334;11.190;2022-12-10T00:59:25;-0.10;99.90
16929;DHT22;8581;47.334;11.190;2022-12-10T01:01:57;0.00;99.90
16929;DHT22;8581;47.334;11.190;2022-12-10T01:04:29;0.10;99.90
16929;DHT22;8581;47.334;11.190;2022-12-10T01:07:00;0.20;99.90
16929;DHT22;8581;47.334;11.190;2022-12-10T01:09:32;0.30;99.90
16929;DHT22;8581;47.334;11.190;2022-12-10T01:12:04;0.30;99.90
16929;DHT22;8581;47.334;11.190;2022-12-10T01:14:36;0.30;99.90
16929;DHT22;8581;47.334;11.190;2022-12-10T01:17:08;0.40;99.90
16929;DHT22;8581;47.334;11.190;2022-12-10T01:19:39;0.70;99.90
16929;DHT22;8581;47.334;11.190;2022-12-10T01:22:11;0.80;99.90
16929;DHT22;8581;47.334;11.190;2022-12-10T01:24:43;0.50;99.90
16929;DHT22;8581;47.334;11.190;2022-12-10T01:27:14;0.60;99.90
16929;DHT22;8581;47.334;11.190;2022-12-10T01:29:46;0.60;99.90
16929;DHT22;8581;47.334;11.190;2022-12-10T01:32:17;0.50;99.90
16929;DHT22;8581;47.334;11.190;2022-12-10T01:34:49;0.50;99.90
16929;DHT22;8581;47.334;11.190;2022-12-10T01:37:21;0.40;99.90
16929;DHT22;8581;47.334;11.190;2022-12-10T01:39:52;0.40;99.90
16929;DHT22;8581;47.334;11.190;2022-12-10T01:42:24;0.50;99.90
16929;DHT22;8581;47.334;11.190;2022-12-10T01:44:58;0.50;99.90
16929;DHT22;8581;47.334;11.190;2022-12-10T01:47:28;0.60;99.90
16929;DHT22;8581;47.334;11.190;2022-12-10T01:50:00;0.60;99.90
16929;DHT22;8581;47.334;11.190;2022-12-10T01:52:31;0.40;99.90
16929;DHT22;8581;47.334;11.190;2022-12-10T01:55:06;0.40;99.90
16929;DHT22;8581;47.334;11.190;2022-12-10T01:57:34;0.40;99.90
16929;DHT22;8581;47.334;11.190;2022-12-10T02:00:07;0.40;99.90
16929;DHT22;8581;47.334;11.190;2022-12-10T02:02:46;0.40;99.90
16929;DHT22;8581;47.334;11.190;2022-12-10T02:05:32;0.40;99.90
16929;DHT22;8581;47.334;11.190;2022-12-10T02:08:09;0.50;99.90
16929;DHT22;8581;47.334;11.190;2022-12-10T02:13:43;0.50;99.90
16929;DHT22;8581;47.334;11.190;2022-12-10T02:16:16;0.50;99.90
16929;DHT22;8581;47.334;11.190;2022-12-10T02:18:49;0.50;99.90
16929;DHT22;8581;47.334;11.190;2022-12-10T02:21:21;0.60;99.90
16929;DHT22;8581;47.334;11.190;2022-12-10T02:23:54;0.70;99.90
16929;DHT22;8581;47.334;11.190;2022-12-10T02:26:32;0.60;99.90
16929;DHT22;8581;47.334;11.190;2022-12-10T02:29:19;0.40;99.90
16929;DHT22;8581;47.334;11.190;2022-12-10T02:31:55;0.50;99.90
16929;DHT22;8581;47.334;11.190;2022-12-10T02:34:25;0.40;99.90
16929;DHT22;8581;47.334;11.190;2022-12-10T02:36:57;0.40;99.90
16929;DHT22;8581;47.334;11.190;2022-12-10T02:39:29;0.40;99.90
16929;DHT22;8581;47.334;11.190;2022-12-10T02:42:00;0.30;99.90
16929;DHT22;8581;47.334;11.190;2022-12-10T02:44:31;0.30;99.90
16929;DHT22;8581;47.334;11.190;2022-12-10T02:47:03;0.30;99.90
16929;DHT22;8581;47.334;11.190;2022-12-10T02:49:35;0.20;99.90
16929;DHT22;8581;47.334;11.190;2022-12-10T02:52:09;0.10;99.90
16929;DHT22;8581;47.334;11.190;2022-12-10T02:54:42;0.10;99.90
16929;DHT22;8581;47.334;11.190;2022-12-10T03:00:16;0.10;99.90
16929;DHT22;8581;47.334;11.190;2022-12-10T03:08:22;0.00;99.90
16929;DHT22;8581;47.334;11.190;2022-12-10T03:10:59;0.20;99.90
16929;DHT22;8581;47.334;11.190;2022-12-10T03:13:34;0.10;99.90
16929;DHT22;8581;47.334;11.190;2022-12-10T03:16:04;0.10;99.90
16929;DHT22;8581;47.334;11.190;2022-12-10T03:18:35;0.20;99.90
16929;DHT22;8581;47.334;11.190;2022-12-10T03:21:07;0.20;99.90
16929;DHT22;8581;47.334;11.190;2022-12-10T03:23:40;0.20;99.90
16929;DHT22;8581;47.334;11.190;2022-12-10T03:26:11;0.20;99.90
16929;DHT22;8581;47.334;11.190;2022-12-10T03:28:45;0.10;99.90
16929;DHT22;8581;47.334;11.190;2022-12-10T03:31:14;0.10;99.90
16929;DHT22;8581;47.334;11.190;2022-12-10T03:33:45;0.10;99.90
16929;DHT22;8581;47.334;11.190;2022-12-10T03:36:17;0.10;99.90
16929;DHT22;8581;47.334;11.190;2022-12-10T03:38:49;-0.10;99.90
16929;DHT22;8581;47.334;11.190;2022-12-10T03:41:20;-0.10;99.90
16929;DHT22;8581;47.334;11.190;2022-12-10T03:43:53;-0.10;99.90
16929;DHT22;8581;47.334;11.190;2022-12-10T03:46:25;0.00;99.90
16929;DHT22;8581;47.334;11.190;2022-12-10T03:48:56;-0.10;99.90
16929;DHT22;8581;47.334;11.190;2022-12-10T03:51:27;0.00;99.90
16929;DHT22;8581;47.334;11.190;2022-12-10T03:53:59;0.00;99.90
16929;DHT22;8581;47.334;11.190;2022-12-10T03:56:30;-0.10;99.90
16929;DHT22;8581;47.334;11.190;2022-12-10T03:59:02;0.00;99.90
16929;DHT22;8581;47.334;11.190;2022-12-10T04:01:34;0.00;99.90
16929;DHT22;8581;47.334;11.190;2022-12-10T04:04:05;0.10;99.90
16929;DHT22;8581;47.334;11.190;2022-12-10T04:06:38;0.10;99.90
16929;DHT22;8581;47.334;11.190;2022-12-10T04:09:10;0.00;99.90
16929;DHT22;8581;47.334;11.190;2022-12-10T04:11:41;0.00;99.90
16929;DHT22;8581;47.334;11.190;2022-12-10T04:14:13;-0.10;99.90
16929;DHT22;8581;47.334;11.190;2022-12-10T04:16:50;0.00;99.90
16929;DHT22;8581;47.334;11.190;2022-12-10T04:19:22;-0.10;99.90
16929;DHT22;8581;47.334;11.190;2022-12-10T04:21:53;0.00;99.90
16929;DHT22;8581;47.334;11.190;2022-12-10T04:24:31;-0.10;99.90
16929;DHT22;8581;47.334;11.190;2022-12-10T04:27:08;-0.10;99.90
16929;DHT22;8581;47.334;11.190;2022-12-10T04:29:39;-0.20;99.90
16929;DHT22;8581;47.334;11.190;2022-12-10T04:32:11;-0.10;99.90
16929;DHT22;8581;47.334;11.190;2022-12-10T04:34:43;-0.10;99.90
16929;DHT22;8581;47.334;11.190;2022-12-10T04:37:14;0.00;99.90
16929;DHT22;8581;47.334;11.190;2022-12-10T04:39:46;0.10;99.90
16929;DHT22;8581;47.334;11.190;2022-12-10T04:42:18;0.10;99.90
16929;DHT22;8581;47.334;11.190;2022-12-10T04:44:49;-0.10;99.90
16929;DHT22;8581;47.334;11.190;2022-12-10T04:47:20;-0.20;99.90
16929;DHT22;8581;47.334;11.190;2022-12-10T04:49:52;-0.20;99.90
16929;DHT22;8581;47.334;11.190;2022-12-10T04:52:24;-0.20;99.90
16929;DHT22;8581;47.334;11.190;2022-12-10T04:54:55;0.00;99.90
16929;DHT22;8581;47.334;11.190;2022-12-10T04:57:27;0.00;99.90
16929;DHT22;8581;47.334;11.190;2022-12-10T04:59:58;0.00;99.90
16929;DHT22;8581;47.334;11.190;2022-12-10T05:02:30;0.10;99.90
16929;DHT22;8581;47.334;11.190;2022-12-10T05:05:02;0.20;99.90
16929;DHT22;8581;47.334;11.190;2022-12-10T05:07:33;0.10;99.90
16929;DHT22;8581;47.334;11.190;2022-12-10T05:10:05;0.10;99.90
16929;DHT22;8581;47.334;11.190;2022-12-10T05:12:37;0.20;99.90
16929;DHT22;8581;47.334;11.190;2022-12-10T05:15:10;0.20;99.90
16929;DHT22;8581;47.334;11.190;2022-12-10T05:17:41;0.30;99.90
16929;DHT22;8581;47.334;11.190;2022-12-10T05:20:13;0.20;99.90
16929;DHT22;8581;47.334;11.190;2022-12-10T05:22:44;0.10;99.90
16929;DHT22;8581;47.334;11.190;2022-12-10T05:25:22;0.10;99.90
16929;DHT22;8581;47.334;11.190;2022-12-10T05:27:53;0.10;99.90
16929;DHT22;8581;47.334;11.190;2022-12-10T05:30:25;0.20;99.90
16929;DHT22;8581;47.334;11.190;2022-12-10T05:32:57;0.20;99.90
16929;DHT22;8581;47.334;11.190;2022-12-10T05:35:28;0.30;99.90
16929;DHT22;8581;47.334;11.190;2022-12-10T05:38:00;0.20;99.90
16929;DHT22;8581;47.334;11.190;2022-12-10T05:40:35;0.20;99.90
16929;DHT22;8581;47.334;11.190;2022-12-10T05:43:06;0.10;99.90
16929;DHT22;8581;47.334;11.190;2022-12-10T05:45:37;0.10;99.90
16929;DHT22;8581;47.334;11.190;2022-12-10T05:48:10;0.20;99.90
16929;DHT22;8581;47.334;11.190;2022-12-10T05:50:41;0.30;99.90
16929;DHT22;8581;47.334;11.190;2022-12-10T05:53:12;0.20;99.90
16929;DHT22;8581;47.334;11.190;2022-12-10T05:55:44;-0.10;99.90
16929;DHT22;8581;47.334;11.190;2022-12-10T05:58:16;-0.10;99.90
16929;DHT22;8581;47.334;11.190;2022-12-10T06:00:47;-0.10;99.90
16929;DHT22;8581;47.334;11.190;2022-12-10T06:03:19;-0.20;99.90
16929;DHT22;8581;47.334;11.190;2022-12-10T06:05:50;-0.30;99.90
16929;DHT22;8581;47.334;11.190;2022-12-10T06:08:22;-0.40;99.90
16929;DHT22;8581;47.334;11.190;2022-12-10T06:10:53;-0.30;99.90
16929;DHT22;8581;47.334;11.190;2022-12-10T06:13:25;-0.40;99.90
16929;DHT22;8581;47.334;11.190;2022-12-10T06:15:57;-0.40;99.90
16929;DHT22;8581;47.334;11.190;2022-12-10T06:18:28;-0.40;99.90
16929;DHT22;8581;47.334;11.190;2022-12-10T06:21:03;-0.40;99.90
16929;DHT22;8581;47.334;11.190;2022-12-10T06:23:34;-0.30;99.90
16929;DHT22;8581;47.334;11.190;2022-12-10T06:26:07;-0.30;99.90
16929;DHT22;8581;47.334;11.190;2022-12-10T06:28:38;-0.30;99.90
16929;DHT22;8581;47.334;11.190;2022-12-10T06:31:09;-0.30;99.90
16929;DHT22;8581;47.334;11.190;2022-12-10T06:33:41;-0.10;99.90
16929;DHT22;8581;47.334;11.190;2022-12-10T06:36:13;0.00;99.90
16929;DHT22;8581;47.334;11.190;2022-12-10T06:38:44;0.00;99.90
16929;DHT22;8581;47.334;11.190;2022-12-10T06:41:16;-0.10;99.90
16929;DHT22;8581;47.334;11.190;2022-12-10T06:43:47;-0.10;99.90
16929;DHT22;8581;47.334;11.190;2022-12-10T06:46:19;0.00;99.90
16929;DHT22;8581;47.334;11.190;2022-12-10T06:48:50;0.10;99.90
16929;DHT22;8581;47.334;11.190;2022-12-10T06:51:22;0.00;99.90
16929;DHT22;8581;47.334;11.190;2022-12-10T06:53:54;0.00;99.90
16929;DHT22;8581;47.334;11.190;2022-12-10T06:56:25;0.00;99.90
16929;DHT22;8581;47.334;11.190;2022-12-10T06:58:57;-0.10;99.90
16929;DHT22;8581;47.334;11.190;2022-12-10T07:01:28;0.10;99.90
16929;DHT22;8581;47.334;11.190;2022-12-10T07:04:00;0.00;99.90
16929;DHT22;8581;47.334;11.190;2022-12-10T07:06:32;-0.20;99.90
16929;DHT22;8581;47.334;11.190;2022-12-10T07:09:03;-0.20;99.90
16929;DHT22;8581;47.334;11.190;2022-12-10T07:11:35;-0.10;99.90
16929;DHT22;8581;47.334;11.190;2022-12-10T07:14:06;0.00;99.90
16929;DHT22;8581;47.334;11.190;2022-12-10T07:16:38;0.20;99.90
16929;DHT22;8581;47.334;11.190;2022-12-10T07:19:11;0.10;99.90
16929;DHT22;8581;47.334;11.190;2022-12-10T07:21:42;0.00;99.90
16929;DHT22;8581;47.334;11.190;2022-12-10T07:24:15;0.10;99.90
16929;DHT22;8581;47.334;11.190;2022-12-10T07:26:45;0.10;99.90
16929;DHT22;8581;47.334;11.190;2022-12-10T07:29:20;0.20;99.90
16929;DHT22;8581;47.334;11.190;2022-12-10T07:31:48;0.20;99.90
16929;DHT22;8581;47.334;11.190;2022-12-10T07:34:20;0.10;99.90
16929;DHT22;8581;47.334;11.190;2022-12-10T07:36:52;0.10;99.90
16929;DHT22;8581;47.334;11.190;2022-12-10T07:39:23;0.20;99.90
16929;DHT22;8581;47.334;11.190;2022-12-10T07:41:55;0.10;99.90
16929;DHT22;8581;47.334;11.190;2022-12-10T07:44:26;0.30;99.90
16929;DHT22;8581;47.334;11.190;2022-12-10T07:46:58;0.30;99.90
16929;DHT22;8581;47.334;11.190;2022-12-10T07:49:30;0.30;99.90
16929;DHT22;8581;47.334;11.190;2022-12-10T07:52:01;0.50;99.90
16929;DHT22;8581;47.334;11.190;2022-12-10T07:54:33;0.60;99.90
16929;DHT22;8581;47.334;11.190;2022-12-10T07:57:04;0.90;99.90
16929;DHT22;8581;47.334;11.190;2022-12-10T07:59:36;0.90;99.90
16929;DHT22;8581;47.334;11.190;2022-12-10T08:02:08;0.80;99.90
16929;DHT22;8581;47.334;11.190;2022-12-10T08:04:39;0.90;99.90
16929;DHT22;8581;47.334;11.190;2022-12-10T08:07:11;1.10;99.90
16929;DHT22;8581;47.334;11.190;2022-12-10T08:09:43;1.40;99.90
16929;DHT22;8581;47.334;11.190;2022-12-10T08:12:14;1.10;99.90
16929;DHT22;8581;47.334;11.190;2022-12-10T08:14:46;1.10;99.90
16929;DHT22;8581;47.334;11.190;2022-12-10T08:17:17;1.50;99.90
16929;DHT22;8581;47.334;11.190;2022-12-10T08:19:49;1.40;99.90
16929;DHT22;8581;47.334;11.190;2022-12-10T08:22:21;1.40;99.90
16929;DHT22;8581;47.334;11.190;2022-12-10T08:24:52;1.00;99.90
16929;DHT22;8581;47.334;11.190;2022-12-10T08:27:24;1.10;99.90
16929;DHT22;8581;47.334;11.190;2022-12-10T08:29:55;1.20;99.90
16929;DHT22;8581;47.334;11.190;2022-12-10T08:32:27;1.00;99.90
16929;DHT22;8581;47.334;11.190;2022-12-10T08:34:59;0.90;99.90
16929;DHT22;8581;47.334;11.190;2022-12-10T08:37:30;1.00;99.90
16929;DHT22;8581;47.334;11.190;2022-12-10T08:40:02;1.10;99.90
16929;DHT22;8581;47.334;11.190;2022-12-10T08:42:34;0.90;99.90
16929;DHT22;8581;47.334;11.190;2022-12-10T08:45:07;1.00;99.90
16929;DHT22;8581;47.334;11.190;2022-12-10T08:47:38;1.00;99.90
16929;DHT22;8581;47.334;11.190;2022-12-10T08:50:10;1.20;99.90
16929;DHT22;8581;47.334;11.190;2022-12-10T08:52:42;1.30;99.90
16929;DHT22;8581;47.334;11.190;2022-12-10T08:55:13;1.50;99.90
16929;DHT22;8581;47.334;11.190;2022-12-10T08:57:45;1.50;99.90
16929;DHT22;8581;47.334;11.190;2022-12-10T09:00:16;1.20;99.90
16929;DHT22;8581;47.334;11.190;2022-12-10T09:02:48;1.20;99.90
16929;DHT22;8581;47.334;11.190;2022-12-10T09:05:20;1.30;99.90
16929;DHT22;8581;47.334;11.190;2022-12-10T09:07:51;1.70;99.90
16929;DHT22;8581;47.334;11.190;2022-12-10T09:10:23;1.60;99.90
16929;DHT22;8581;47.334;11.190;2022-12-10T09:12:54;1.50;99.90
16929;DHT22;8581;47.334;11.190;2022-12-10T09:15:26;1.60;99.90
16929;DHT22;8581;47.334;11.190;2022-12-10T09:17:58;1.40;99.90
16929;DHT22;8581;47.334;11.190;2022-12-10T09:20:29;1.50;99.90
16929;DHT22;8581;47.334;11.190;2022-12-10T09:23:01;1.60;99.90
16929;DHT22;8581;47.334;11.190;2022-12-10T09:25:32;1.60;99.90
16929;DHT22;8581;47.334;11.190;2022-12-10T09:28:04;1.60;99.90
16929;DHT22;8581;47.334;11.190;2022-12-10T09:30:36;1.60;99.90
16929;DHT22;8581;47.334;11.190;2022-12-10T09:33:07;1.50;99.90
16929;DHT22;8581;47.334;11.190;2022-12-10T09:35:40;1.50;99.90
16929;DHT22;8581;47.334;11.190;2022-12-10T09:38:11;1.40;99.90
16929;DHT22;8581;47.334;11.190;2022-12-10T09:40:50;1.40;99.90
16929;DHT22;8581;47.334;11.190;2022-12-10T09:43:26;1.40;99.90
16929;DHT22;8581;47.334;11.190;2022-12-10T09:45:59;1.60;99.90
16929;DHT22;8581;47.334;11.190;2022-12-10T09:48:32;1.30;99.90
16929;DHT22;8581;47.334;11.190;2022-12-10T09:51:05;1.20;99.90
16929;DHT22;8581;47.334;11.190;2022-12-10T09:53:35;1.10;99.90
16929;DHT22;8581;47.334;11.190;2022-12-10T09:56:06;1.10;99.90
16929;DHT22;8581;47.334;11.190;2022-12-10T09:58:38;1.10;99.90
16929;DHT22;8581;47.334;11.190;2022-12-10T10:01:10;1.40;99.90
16929;DHT22;8581;47.334;11.190;2022-12-10T10:03:41;1.70;99.90
16929;DHT22;8581;47.334;11.190;2022-12-10T10:06:13;1.70;99.90
16929;DHT22;8581;47.334;11.190;2022-12-10T10:08:46;1.50;99.90
16929;DHT22;8581;47.334;11.190;2022-12-10T10:11:19;1.50;99.90
16929;DHT22;8581;47.334;11.190;2022-12-10T10:13:53;1.40;99.90
16929;DHT22;8581;47.334;11.190;2022-12-10T10:16:25;1.10;99.90
16929;DHT22;8581;47.334;11.190;2022-12-10T10:19:11;1.10;99.90
16929;DHT22;8581;47.334;11.190;2022-12-10T10:21:42;1.10;99.90
16929;DHT22;8581;47.334;11.190;2022-12-10T10:24:14;1.40;99.90
16929;DHT22;8581;47.334;11.190;2022-12-10T10:26:45;1.70;99.90
16929;DHT22;8581;47.334;11.190;2022-12-10T10:29:17;1.50;99.90
16929;DHT22;8581;47.334;11.190;2022-12-10T10:31:57;1.50;99.90
16929;DHT22;8581;47.334;11.190;2022-12-10T10:34:21;1.30;99.90
16929;DHT22;8581;47.334;11.190;2022-12-10T10:36:56;1.50;99.90
16929;DHT22;8581;47.334;11.190;2022-12-10T10:39:28;1.50;99.90
16929;DHT22;8581;47.334;11.190;2022-12-10T10:41:59;1.50;99.90
16929;DHT22;8581;47.334;11.190;2022-12-10T10:44:37;1.50;99.90
16929;DHT22;8581;47.334;11.190;2022-12-10T10:47:28;1.70;99.90
16929;DHT22;8581;47.334;11.190;2022-12-10T10:50:00;1.90;99.90
16929;DHT22;8581;47.334;11.190;2022-12-10T10:52:36;2.00;99.90
16929;DHT22;8581;47.334;11.190;2022-12-10T10:55:12;2.20;99.90
16929;DHT22;8581;47.334;11.190;2022-12-10T10:57:38;2.20;99.90
16929;DHT22;8581;47.334;11.190;2022-12-10T11:00:19;1.80;99.90
16929;DHT22;8581;47.334;11.190;2022-12-10T11:02:51;2.10;99.90
16929;DHT22;8581;47.334;11.190;2022-12-10T11:05:24;2.40;99.90
16929;DHT22;8581;47.334;11.190;2022-12-10T11:07:58;2.50;99.90
16929;DHT22;8581;47.334;11.190;2022-12-10T11:10:29;2.60;99.90
16929;DHT22;8581;47.334;11.190;2022-12-10T11:13:05;2.30;99.90
16929;DHT22;8581;47.334;11.190;2022-12-10T11:15:37;2.10;99.90
16929;DHT22;8581;47.334;11.190;2022-12-10T11:18:30;2.30;99.90
16929;DHT22;8581;47.334;11.190;2022-12-10T11:21:00;2.40;99.90
16929;DHT22;8581;47.334;11.190;2022-12-10T11:23:32;2.10;99.90
16929;DHT22;8581;47.334;11.190;2022-12-10T11:26:31;2.00;99.90
16929;DHT22;8581;47.334;11.190;2022-12-10T11:29:37;2.10;99.90
16929;DHT22;8581;47.334;11.190;2022-12-10T11:37:39;2.10;99.90
16929;DHT22;8581;47.334;11.190;2022-12-10T11:40:25;1.50;99.90
16929;DHT22;8581;47.334;11.190;2022-12-10T11:43:18;1.30;99.90
16929;DHT22;8581;47.334;11.190;2022-12-10T11:46:26;1.40;99.90
16929;DHT22;8581;47.334;11.190;2022-12-10T11:49:00;1.40;99.90
16929;DHT22;8581;47.334;11.190;2022-12-10T11:51:40;0.80;99.90
16929;DHT22;8581;47.334;11.190;2022-12-10T11:54:33;0.80;99.90
16929;DHT22;8581;47.334;11.190;2022-12-10T11:57:06;0.80;99.90
16929;DHT22;8581;47.334;11.190;2022-12-10T11:59:40;0.80;99.90
16929;DHT22;8581;47.334;11.190;2022-12-10T12:02:19;1.00;99.90
16929;DHT22;8581;47.334;11.190;2022-12-10T12:04:59;0.90;99.90
16929;DHT22;8581;47.334;11.190;2022-12-10T12:07:49;1.00;99.90
16929;DHT22;8581;47.334;11.190;2022-12-10T12:13:25;1.20;99.90
16929;DHT22;8581;47.334;11.190;2022-12-10T12:15:59;0.80;99.90
16929;DHT22;8581;47.334;11.190;2022-12-10T12:21:09;0.50;99.90
16929;DHT22;8581;47.334;11.190;2022-12-10T12:23:45;0.50;99.90
16929;DHT22;8581;47.334;11.190;2022-12-10T12:26:19;0.50;99.90
16929;DHT22;8581;47.334;11.190;2022-12-10T12:29:08;0.50;99.90
16929;DHT22;8581;47.334;11.190;2022-12-10T12:31:38;0.40;99.90
16929;DHT22;8581;47.334;11.190;2022-12-10T12:36:48;0.30;99.90
16929;DHT22;8581;47.334;11.190;2022-12-10T12:39:34;0.20;99.90
16929;DHT22;8581;47.334;11.190;2022-12-10T12:42:27;0.30;99.90
16929;DHT22;8581;47.334;11.190;2022-12-10T12:45:03;0.20;99.90
16929;DHT22;8581;47.334;11.190;2022-12-10T12:47:38;0.30;99.90
16929;DHT22;8581;47.334;11.190;2022-12-10T12:50:11;0.30;99.90
16929;DHT22;8581;47.334;11.190;2022-12-10T12:52:43;0.20;99.90
16929;DHT22;8581;47.334;11.190;2022-12-10T12:55:31;0.20;99.90
16929;DHT22;8581;47.334;11.190;2022-12-10T12:58:13;0.10;99.90
16929;DHT22;8581;47.334;11.190;2022-12-10T13:00:43;0.00;99.90
16929;DHT22;8581;47.334;11.190;2022-12-10T13:03:34;0.10;99.90
16929;DHT22;8581;47.334;11.190;2022-12-10T13:06:14;0.00;99.90
16929;DHT22;8581;47.334;11.190;2022-12-10T13:08:47;-0.20;99.90
16929;DHT22;8581;47.334;11.190;2022-12-10T13:11:19;-0.10;99.90
16929;DHT22;8581;47.334;11.190;2022-12-10T13:14:04;-0.10;99.90
16929;DHT22;8581;47.334;11.190;2022-12-10T13:19:25;-0.20;99.90
16929;DHT22;8581;47.334;11.190;2022-12-10T13:25:04;-0.10;99.90
16929;DHT22;8581;47.334;11.190;2022-12-10T13:27:34;-0.20;99.90
16929;DHT22;8581;47.334;11.190;2022-12-10T13:30:26;-0.20;99.90
16929;DHT22;8581;47.334;11.190;2022-12-10T13:33:17;-0.30;99.90
16929;DHT22;8581;47.334;11.190;2022-12-10T13:35:50;-0.40;99.90
16929;DHT22;8581;47.334;11.190;2022-12-10T13:38:22;-0.30;99.90
16929;DHT22;8581;47.334;11.190;2022-12-10T13:40:57;-0.30;99.90
16929;DHT22;8581;47.334;11.190;2022-12-10T13:43:37;-0.30;99.90
16929;DHT22;8581;47.334;11.190;2022-12-10T13:46:32;-0.30;99.90
16929;DHT22;8581;47.334;11.190;2022-12-10T13:49:03;-0.30;99.90
16929;DHT22;8581;47.334;11.190;2022-12-10T13:51:43;-0.30;99.90
16929;DHT22;8581;47.334;11.190;2022-12-10T13:54:32;-0.30;99.90
16929;DHT22;8581;47.334;11.190;2022-12-10T13:57:15;-0.40;99.90
16929;DHT22;8581;47.334;11.190;2022-12-10T13:59:55;-0.30;99.90
16929;DHT22;8581;47.334;11.190;2022-12-10T14:02:35;-0.30;99.90
16929;DHT22;8581;47.334;11.190;2022-12-10T14:05:20;-0.40;99.90
16929;DHT22;8581;47.334;11.190;2022-12-10T14:07:50;-0.40;99.90
16929;DHT22;8581;47.334;11.190;2022-12-10T14:10:21;-0.50;99.90
16929;DHT22;8581;47.334;11.190;2022-12-10T14:12:52;-0.20;99.90
16929;DHT22;8581;47.334;11.190;2022-12-10T14:15:24;-0.30;99.90
16929;DHT22;8581;47.334;11.190;2022-12-10T14:18:11;-0.30;99.90
16929;DHT22;8581;47.334;11.190;2022-12-10T14:20:45;-0.50;99.90
16929;DHT22;8581;47.334;11.190;2022-12-10T14:23:24;-0.50;99.90
16929;DHT22;8581;47.334;11.190;2022-12-10T14:26:15;-0.50;99.90
16929;DHT22;8581;47.334;11.190;2022-12-10T14:28:48;-0.50;99.90
16929;DHT22;8581;47.334;11.190;2022-12-10T14:31:21;-0.50;99.90
16929;DHT22;8581;47.334;11.190;2022-12-10T14:33:51;-0.50;99.90
16929;DHT22;8581;47.334;11.190;2022-12-10T14:36:26;-0.50;99.90
16929;DHT22;8581;47.334;11.190;2022-12-10T14:38:56;-0.60;99.90
16929;DHT22;8581;47.334;11.190;2022-12-10T14:41:28;-0.70;99.90
16929;DHT22;8581;47.334;11.190;2022-12-10T14:44:01;-0.70;99.90
16929;DHT22;8581;47.334;11.190;2022-12-10T14:46:31;-0.70;99.90
16929;DHT22;8581;47.334;11.190;2022-12-10T14:49:02;-0.60;99.90
16929;DHT22;8581;47.334;11.190;2022-12-10T14:51:33;-0.70;99.90
16929;DHT22;8581;47.334;11.190;2022-12-10T14:54:05;-0.70;99.90
16929;DHT22;8581;47.334;11.190;2022-12-10T14:56:37;-0.90;99.90
16929;DHT22;8581;47.334;11.190;2022-12-10T14:59:14;-1.00;99.90
16929;DHT22;8581;47.334;11.190;2022-12-10T15:01:45;-0.90;99.90
16929;DHT22;8581;47.334;11.190;2022-12-10T15:04:17;-1.10;99.90
16929;DHT22;8581;47.334;11.190;2022-12-10T15:06:48;-1.00;99.90
16929;DHT22;8581;47.334;11.190;2022-12-10T15:09:20;-1.10;99.90
16929;DHT22;8581;47.334;11.190;2022-12-10T15:11:53;-1.00;99.90
16929;DHT22;8581;47.334;11.190;2022-12-10T15:14:25;-1.10;99.90
16929;DHT22;8581;47.334;11.190;2022-12-10T15:16:56;-1.20;99.90
16929;DHT22;8581;47.334;11.190;2022-12-10T15:19:32;-1.00;99.90
16929;DHT22;8581;47.334;11.190;2022-12-10T15:22:18;-1.20;99.90
16929;DHT22;8581;47.334;11.190;2022-12-10T15:24:49;-1.20;99.90
16929;DHT22;8581;47.334;11.190;2022-12-10T15:27:22;-1.20;99.90
16929;DHT22;8581;47.334;11.190;2022-12-10T15:29:53;-1.20;99.90
16929;DHT22;8581;47.334;11.190;2022-12-10T15:32:26;-1.30;99.90
16929;DHT22;8581;47.334;11.190;2022-12-10T15:34:59;-1.40;99.90
16929;DHT22;8581;47.334;11.190;2022-12-10T15:37:32;-1.30;99.90
16929;DHT22;8581;47.334;11.190;2022-12-10T15:40:05;-1.40;99.90
16929;DHT22;8581;47.334;11.190;2022-12-10T15:42:39;-1.30;99.90
16929;DHT22;8581;47.334;11.190;2022-12-10T15:45:20;-1.30;99.90
16929;DHT22;8581;47.334;11.190;2022-12-10T15:47:57;-1.30;99.90
16929;DHT22;8581;47.334;11.190;2022-12-10T15:50:28;-1.40;99.90
16929;DHT22;8581;47.334;11.190;2022-12-10T15:52:59;-1.50;99.90
16929;DHT22;8581;47.334;11.190;2022-12-10T15:55:31;-1.40;99.90
16929;DHT22;8581;47.334;11.190;2022-12-10T15:58:04;-1.50;99.90
16929;DHT22;8581;47.334;11.190;2022-12-10T16:00:34;-1.50;99.90
16929;DHT22;8581;47.334;11.190;2022-12-10T16:03:06;-1.40;99.90
16929;DHT22;8581;47.334;11.190;2022-12-10T16:05:38;-1.40;99.90
16929;DHT22;8581;47.334;11.190;2022-12-10T16:08:12;-1.40;99.90
16929;DHT22;8581;47.334;11.190;2022-12-10T16:10:43;-1.40;99.90
16929;DHT22;8581;47.334;11.190;2022-12-10T16:13:25;-1.40;99.90
16929;DHT22;8581;47.334;11.190;2022-12-10T16:16:01;-1.40;99.90
16929;DHT22;8581;47.334;11.190;2022-12-10T16:18:31;-1.50;99.90
16929;DHT22;8581;47.334;11.190;2022-12-10T16:21:04;-1.50;99.90
16929;DHT22;8581;47.334;11.190;2022-12-10T16:23:35;-1.50;99.90
16929;DHT22;8581;47.334;11.190;2022-12-10T16:26:14;-1.50;99.90
16929;DHT22;8581;47.334;11.190;2022-12-10T16:28:44;-1.50;99.90
16929;DHT22;8581;47.334;11.190;2022-12-10T16:31:17;-1.40;99.90
16929;DHT22;8581;47.334;11.190;2022-12-10T16:33:48;-1.40;99.90
16929;DHT22;8581;47.334;11.190;2022-12-10T16:36:19;-1.40;99.90
16929;DHT22;8581;47.334;11.190;2022-12-10T16:38:51;-1.40;99.90
16929;DHT22;8581;47.334;11.190;2022-12-10T16:41:23;-1.50;99.90
16929;DHT22;8581;47.334;11.190;2022-12-10T16:43:54;-1.50;99.90
16929;DHT22;8581;47.334;11.190;2022-12-10T16:46:26;-1.50;99.90
16929;DHT22;8581;47.334;11.190;2022-12-10T16:48:57;-1.50;99.90
16929;DHT22;8581;47.334;11.190;2022-12-10T16:51:29;-1.50;99.90